Naha, Japan

5:55 PM JST on September 18, 2014 (GMT +0900)
Futenma Marine Corps Air Station | Change Station
CLOSE
Current Station
Airport
Location: Futenma MCAF,
Elevation: 246 ft
Nearby Weather Stations

Elev 246 ft 26.27 °N, 127.75 °E | Updated -135 second ago

Haze
Haze
83 °F
Feels Like 90 °F
N
9
Wind Variable Wind from ENE

Today
High -- | Low -- °F
--% Chance of Precip.
Yesterday
High -- | Low -- °F
Precip. -- in
6:15 AM 6:30 PM
Waning Crescent, 29% visible
Pressure 29.82 in
Visibility 5.0 miles
Clouds Few 2000 ft
Scattered Clouds 18000 ft
Heat Index 90 °F
Dew Point 75 °F
Humidity 77%
Rainfall 0.00 in
Snow Depth Not available.
UV 0 out of 12
Pollen Not available.
Air Quality Not available.
Flu Activity Not available.
METAR ROTM 180858Z 07008KT 8000 HZ FEW020 SCT180 28/24 A2986 RMK SLP097 T02830239 55000

More Conditions Fewer Conditions

Pressure 29.82 in
Visibility 5.0 miles
Clouds Few 2000 ft
Scattered Clouds 18000 ft
Heat Index 90 °F
Dew Point 75 °F
Humidity 77%
Rainfall 0.00 in
Snow Depth Not available.
UV 0 out of 12
Pollen Not available.
Air Quality Not available.
Flu Activity Not available.
METAR ROTM 180858Z 07008KT 8000 HZ FEW020 SCT180 28/24 A2986 RMK SLP097 T02830239 55000

More Conditions Fewer Conditions

10-Day Weather Forecast

Almanac

Astronomy

Sep. 18, 2014 Rise Set
Actual Time 6:15 AM JST 6:30 PM JST
Civil Twilight 5:52 AM JST 6:53 PM JST
Nautical Twilight 5:25 AM JST 7:20 PM JST
Astronomical Twilight 4:58 AM JST 7:47 PM JST
Moon 12:59 AM JST 2:34 PM JST
Length of Visible Light 13h 00m
Length of Day
12h 14m
Tomorrow will be 1m 32s shorter.
Waning Crescent, 29% of the Moon is Illuminated
Today
Waning Crescent
Sep 24
New
Oct 1
First Quarter
Oct 8
Full
Oct 15
Last Quarter

Yesterday's Extremes

Country Highs Country Lows

Community

WunderPhotos

Upload Photos

1,754,310 photos uploaded!

Nearby

Snow Depth

Not available.

Earthquake Activity

City Distance Mag. Time & Date
No recent earthquake activity has been reported nearby.
Minimum magnitude displayed is 2.5.

Coastal Water Temperatures

Place Temperature
No Stations Reporting

Nearby Weather Stations